Time;durP1;ratioP1;P1;durP2;ratioP2;P2;SDS_P1;SDS_P2;PMS_P1;PMS_P2;Temp;Humidity;BMP_temperature;BMP_pressure;BME280_temperature;BME280_humidity;BME280_pressure;Samples;Min_cycle;Max_cycle;Signal;HPM_P1;HPM_P2
2023/01/13 00:02:09;;;;;;;22.05;18.00;;;18.30;71.70;;;;;;5075707;28;20044;-13
2023/01/13 00:04:35;;;;;;;20.05;17.70;;;18.30;71.50;;;;;;5066105;28;20059;-13
2023/01/13 00:07:00;;;;;;;24.05;18.70;;;18.30;71.50;;;;;;5065132;28;20044;-15
2023/01/13 00:09:26;;;;;;;21.02;17.67;;;18.40;71.50;;;;;;5067487;28;20044;-13
2023/01/13 00:11:51;;;;;;;20.23;17.52;;;18.40;71.10;;;;;;5065038;28;20052;-13
2023/01/13 00:14:17;;;;;;;20.90;17.45;;;18.30;71.30;;;;;;5066619;28;20055;-14
2023/01/13 00:16:42;;;;;;;20.00;16.90;;;18.30;71.30;;;;;;5075357;28;20123;-14
2023/01/13 00:19:08;;;;;;;19.90;17.75;;;18.30;71.40;;;;;;5074006;28;20086;-14
2023/01/13 00:21:35;;;;;;;20.77;17.67;;;18.30;71.30;;;;;;5074895;28;20509;-22
2023/01/13 00:24:00;;;;;;;17.45;15.60;;;18.30;71.10;;;;;;5073436;28;20048;-14
2023/01/13 00:26:29;;;;;;;18.27;15.55;;;18.40;71.20;;;;;;5072038;28;20080;-15
2023/01/13 00:28:58;;;;;;;20.65;16.58;;;18.40;71.10;;;;;;5068776;28;20051;-15
2023/01/13 00:31:23;;;;;;;17.85;15.10;;;18.30;71.90;;;;;;5062332;28;20050;-24
2023/01/13 00:33:49;;;;;;;19.20;16.40;;;18.30;71.30;;;;;;5069228;28;20053;-22
2023/01/13 00:36:16;;;;;;;16.35;14.57;;;18.30;71.00;;;;;;5074895;28;20119;-14
2023/01/13 00:38:42;;;;;;;16.27;14.27;;;18.30;71.00;;;;;;5077022;28;20137;-14
2023/01/13 00:41:18;;;;;;;17.50;15.32;;;18.20;71.40;;;;;;5078130;28;20089;-16
2023/01/13 00:43:44;;;;;;;17.27;15.05;;;18.30;71.30;;;;;;5063616;28;20131;-13
2023/01/13 00:46:12;;;;;;;15.90;13.60;;;18.30;71.00;;;;;;5072218;28;20186;-13
2023/01/13 00:48:38;;;;;;;19.23;14.10;;;18.20;71.10;;;;;;5077307;28;20048;-16
2023/01/13 00:51:05;;;;;;;15.23;13.60;;;18.30;71.10;;;;;;5074761;28;20047;-15
2023/01/13 00:53:38;;;;;;;13.88;12.30;;;18.20;71.10;;;;;;5067062;28;20060;-16
2023/01/13 00:56:06;;;;;;;14.20;12.70;;;18.30;71.10;;;;;;5069754;28;20052;-13
2023/01/13 00:58:32;;;;;;;14.23;12.73;;;18.20;71.10;;;;;;5076018;28;20049;-16
2023/01/13 01:01:01;;;;;;;13.32;11.98;;;18.20;71.10;;;;;;5077564;28;20048;-18
2023/01/13 01:03:28;;;;;;;13.15;11.75;;;18.20;71.20;;;;;;5076950;28;20839;-14
2023/01/13 01:05:54;;;;;;;12.40;11.20;;;18.20;71.00;;;;;;5077349;28;20055;-15
2023/01/13 01:08:19;;;;;;;12.43;11.13;;;18.20;71.20;;;;;;5076438;28;20048;-20
2023/01/13 01:10:45;;;;;;;12.55;11.25;;;18.10;71.20;;;;;;5076368;28;20121;-17
2023/01/13 01:13:13;;;;;;;12.93;11.63;;;18.20;71.00;;;;;;5077216;28;20049;-14
2023/01/13 01:15:40;;;;;;;12.20;10.90;;;18.30;70.90;;;;;;5081791;28;20039;-15
2023/01/13 01:18:05;;;;;;;11.57;10.43;;;18.20;70.80;;;;;;5079371;28;20424;-13
2023/01/13 01:20:31;;;;;;;12.15;10.95;;;18.20;71.00;;;;;;5081032;28;20557;-13
2023/01/13 01:22:57;;;;;;;12.00;10.80;;;18.30;70.70;;;;;;5080410;28;20135;-13
2023/01/13 01:25:22;;;;;;;12.77;11.55;;;18.20;70.90;;;;;;5079939;28;20044;-13
2023/01/13 01:27:48;;;;;;;11.95;10.80;;;18.10;71.00;;;;;;5075599;28;20056;-14
2023/01/13 01:30:14;;;;;;;13.55;12.10;;;18.20;71.00;;;;;;5081137;28;20113;-13
2023/01/13 01:32:39;;;;;;;10.98;9.75;;;18.20;70.90;;;;;;5079759;28;20029;-15
2023/01/13 01:35:05;;;;;;;11.18;10.10;;;18.10;71.10;;;;;;5086233;28;20041;-13
2023/01/13 01:37:31;;;;;;;11.07;9.98;;;18.10;71.20;;;;;;5075918;28;20273;-14
2023/01/13 01:39:56;;;;;;;11.27;9.98;;;18.10;71.10;;;;;;5074779;28;20128;-23
2023/01/13 01:45:20;;;;;;;11.45;10.32;;;18.10;71.10;;;;;;5073046;28;20115;-15
2023/01/13 01:47:47;;;;;;;10.13;9.23;;;18.20;70.90;;;;;;5081165;28;20052;-17
2023/01/13 01:50:12;;;;;;;10.73;9.52;;;18.10;71.10;;;;;;5078294;28;20043;-14
2023/01/13 01:52:42;;;;;;;10.73;9.63;;;18.00;71.00;;;;;;5070041;28;20086;-13
2023/01/13 01:55:15;;;;;;;10.88;9.77;;;18.10;71.00;;;;;;5080034;28;20048;-14
2023/01/13 01:57:54;;;;;;;10.23;9.23;;;18.20;70.70;;;;;;5054795;28;20079;-14
2023/01/13 02:00:19;;;;;;;9.35;8.40;;;18.10;70.70;;;;;;5083418;28;20098;-13
2023/01/13 02:02:46;;;;;;;9.63;8.75;;;18.20;70.90;;;;;;5079766;28;20053;-14
2023/01/13 02:05:12;;;;;;;8.70;7.90;;;18.10;70.70;;;;;;5082690;28;20040;-14
2023/01/13 02:07:38;;;;;;;8.13;7.43;;;18.10;70.70;;;;;;5076550;28;20390;-14
2023/01/13 02:10:05;;;;;;;9.60;8.70;;;18.00;70.90;;;;;;5067686;28;20425;-13
2023/01/13 02:12:31;;;;;;;8.43;7.68;;;18.10;70.90;;;;;;5069636;28;20047;-14
2023/01/13 02:15:05;;;;;;;8.75;7.95;;;18.10;70.90;;;;;;5065006;28;20409;-16
2023/01/13 02:17:55;;;;;;;7.60;7.00;;;18.10;70.60;;;;;;5066503;28;20049;-13
2023/01/13 02:20:48;;;;;;;8.10;7.38;;;18.20;70.30;;;;;;5073338;28;20544;-16
2023/01/13 02:26:16;;;;;;;8.55;7.75;;;18.10;70.50;;;;;;5073015;28;20056;-13
2023/01/13 02:31:59;;;;;;;7.40;6.70;;;18.10;70.50;;;;;;5073611;28;20055;-13
2023/01/13 02:34:43;;;;;;;6.80;6.30;;;18.10;70.50;;;;;;5067640;28;20048;-16
2023/01/13 02:37:21;;;;;;;7.88;7.18;;;18.00;70.70;;;;;;5069070;28;20040;-14
2023/01/13 02:40:00;;;;;;;6.80;6.30;;;18.10;70.40;;;;;;5068425;28;20150;-15
2023/01/13 02:45:24;;;;;;;6.75;6.15;;;18.00;70.70;;;;;;5064729;28;20591;-16
2023/01/13 02:47:50;;;;;;;6.72;6.15;;;17.90;70.80;;;;;;5023600;28;20121;-15
2023/01/13 02:50:18;;;;;;;6.30;5.70;;;18.00;70.70;;;;;;5015417;28;20132;-15
2023/01/13 02:52:57;;;;;;;6.45;5.95;;;18.10;70.50;;;;;;5035221;28;20065;-14
2023/01/13 02:55:45;;;;;;;6.35;5.88;;;18.10;71.00;;;;;;5052322;28;20052;-14
2023/01/13 02:58:12;;;;;;;6.40;5.90;;;18.10;70.40;;;;;;5031355;28;20116;-19
2023/01/13 03:00:38;;;;;;;6.20;5.75;;;18.10;70.20;;;;;;5029062;28;20506;-13
2023/01/13 03:03:03;;;;;;;5.95;5.55;;;18.20;70.30;;;;;;5048428;28;20039;-14
2023/01/13 03:05:29;;;;;;;6.57;5.97;;;18.10;70.30;;;;;;5049274;28;20053;-13
2023/01/13 03:07:58;;;;;;;5.57;5.18;;;18.10;70.40;;;;;;5033900;28;20040;-14
2023/01/13 03:10:36;;;;;;;5.55;5.05;;;18.10;70.40;;;;;;5047678;28;20041;-14
2023/01/13 03:13:14;;;;;;;5.85;5.40;;;18.00;70.50;;;;;;5050462;28;20544;-15
2023/01/13 03:15:48;;;;;;;6.18;5.68;;;18.00;70.60;;;;;;5036114;28;20075;-13
2023/01/13 03:18:19;;;;;;;6.28;5.78;;;18.10;70.50;;;;;;5053862;28;20044;-14
2023/01/13 03:21:16;;;;;;;5.05;4.75;;;18.00;70.50;;;;;;5045722;28;20049;-15
2023/01/13 03:24:02;;;;;;;5.30;4.90;;;17.90;70.70;;;;;;4994008;28;20129;-17
2023/01/13 03:26:33;;;;;;;5.10;4.70;;;17.90;70.70;;;;;;5012926;28;20045;-15
2023/01/13 03:29:05;;;;;;;5.25;4.85;;;18.00;70.60;;;;;;4998736;28;20514;-13
2023/01/13 03:31:31;;;;;;;5.60;5.20;;;17.90;70.60;;;;;;5013843;28;20096;-14
2023/01/13 03:34:05;;;;;;;6.13;5.63;;;17.90;70.70;;;;;;4994284;28;20108;-13
2023/01/13 03:36:31;;;;;;;5.40;5.00;;;17.90;70.70;;;;;;5013457;28;20077;-13
2023/01/13 03:38:59;;;;;;;4.53;4.22;;;17.90;70.90;;;;;;4995326;28;20072;-14
2023/01/13 03:41:27;;;;;;;5.40;5.00;;;17.80;71.00;;;;;;5016482;28;20060;-15
2023/01/13 03:44:22;;;;;;;4.30;4.00;;;17.90;70.80;;;;;;4998666;28;20160;-16
2023/01/13 03:47:19;;;;;;;5.10;4.70;;;17.90;70.90;;;;;;4990642;28;20057;-14
2023/01/13 03:49:52;;;;;;;4.82;4.40;;;17.90;70.80;;;;;;4995280;28;20154;-15
2023/01/13 03:52:24;;;;;;;4.40;4.10;;;17.90;70.80;;;;;;4974673;28;20042;-14
2023/01/13 03:54:53;;;;;;;4.95;4.55;;;17.90;70.80;;;;;;4981100;28;20614;-14
2023/01/13 03:57:20;;;;;;;4.78;4.47;;;17.90;70.80;;;;;;4957577;28;20068;-23
2023/01/13 03:59:47;;;;;;;4.35;4.00;;;17.80;71.00;;;;;;5006390;28;20477;-14
2023/01/13 04:02:24;;;;;;;4.55;4.25;;;17.80;71.10;;;;;;5036030;28;20044;-14
2023/01/13 04:04:59;;;;;;;4.88;4.57;;;17.80;71.00;;;;;;5057410;28;20581;-13
2023/01/13 04:07:44;;;;;;;4.68;4.28;;;17.90;70.70;;;;;;5050681;28;20052;-14
2023/01/13 04:10:10;;;;;;;4.53;4.22;;;17.90;70.80;;;;;;5052434;28;20287;-14
2023/01/13 04:13:01;;;;;;;4.15;3.80;;;17.90;70.60;;;;;;5017945;28;20082;-14
2023/01/13 04:15:37;;;;;;;3.90;3.60;;;17.80;71.50;;;;;;5046566;28;20111;-13
2023/01/13 04:18:16;;;;;;;3.90;3.60;;;17.80;70.90;;;;;;5036365;28;20044;-16
2023/01/13 04:20:43;;;;;;;3.85;3.55;;;17.80;71.00;;;;;;5049085;28;20040;-15
2023/01/13 04:23:09;;;;;;;3.95;3.65;;;17.80;70.90;;;;;;5034769;28;20048;-19
2023/01/13 04:25:34;;;;;;;4.30;4.00;;;17.80;70.90;;;;;;5053143;28;20033;-14
2023/01/13 04:28:00;;;;;;;3.72;3.50;;;17.80;70.80;;;;;;5049990;28;20160;-14
2023/01/13 04:30:26;;;;;;;3.58;3.38;;;17.80;71.00;;;;;;5059503;28;20158;-12
2023/01/13 04:32:51;;;;;;;3.65;3.35;;;17.90;70.90;;;;;;5047169;28;20556;-13
2023/01/13 04:35:17;;;;;;;3.97;3.60;;;17.80;70.90;;;;;;5056624;28;21134;-16
2023/01/13 04:37:42;;;;;;;3.85;3.55;;;17.80;71.10;;;;;;5048290;28;20055;-14
2023/01/13 04:40:08;;;;;;;3.38;3.17;;;17.70;71.10;;;;;;5052858;28;20037;-17
2023/01/13 04:42:34;;;;;;;3.80;3.40;;;17.80;71.30;;;;;;5056017;28;21173;-14
2023/01/13 04:44:59;;;;;;;3.55;3.25;;;17.80;71.20;;;;;;5053137;28;20041;-16
2023/01/13 04:47:25;;;;;;;3.17;2.88;;;17.80;71.70;;;;;;5048966;28;20498;-15
2023/01/13 04:49:51;;;;;;;3.80;3.50;;;17.80;71.10;;;;;;5046158;28;20036;-14
2023/01/13 04:52:16;;;;;;;3.03;2.80;;;17.80;71.30;;;;;;5044733;28;20061;-13
2023/01/13 04:54:42;;;;;;;3.50;3.20;;;17.80;71.10;;;;;;5043761;28;20045;-16
2023/01/13 04:57:07;;;;;;;3.22;3.03;;;17.80;71.30;;;;;;5049031;28;20171;-14
2023/01/13 04:59:33;;;;;;;3.33;3.13;;;17.80;71.20;;;;;;5045262;28;20037;-14
2023/01/13 05:01:58;;;;;;;3.13;2.90;;;17.70;71.20;;;;;;5048963;28;20041;-14
2023/01/13 05:04:24;;;;;;;3.30;3.10;;;17.80;71.20;;;;;;5050607;28;20051;-15
2023/01/13 05:06:49;;;;;;;2.90;2.70;;;17.80;70.90;;;;;;5052063;28;20785;-14
2023/01/13 05:09:15;;;;;;;3.55;3.25;;;17.80;71.00;;;;;;5052263;28;20049;-13
2023/01/13 05:17:11;;;;;;;2.75;2.55;;;17.70;71.30;;;;;;5043658;28;19986;-13
2023/01/13 05:19:39;;;;;;;3.00;2.80;;;17.80;70.90;;;;;;5032267;28;20057;-17
2023/01/13 05:27:33;;;;;;;2.60;2.45;;;17.70;71.20;;;;;;5044051;28;20145;-14
2023/01/13 05:29:59;;;;;;;2.92;2.72;;;17.70;71.50;;;;;;5045156;28;20163;-16
2023/01/13 05:32:26;;;;;;;2.95;2.75;;;17.70;71.20;;;;;;5045855;28;20045;-20
2023/01/13 05:34:52;;;;;;;2.92;2.72;;;17.70;71.30;;;;;;5048553;28;20053;-16
2023/01/13 05:37:18;;;;;;;2.80;2.58;;;17.70;71.40;;;;;;5046458;28;20120;-15
2023/01/13 05:45:12;;;;;;;2.70;2.50;;;17.70;71.30;;;;;;5056674;28;20571;-13
2023/01/13 05:47:37;;;;;;;2.65;2.45;;;17.80;71.30;;;;;;5066414;28;20521;-15
2023/01/13 05:50:03;;;;;;;2.33;2.22;;;17.80;71.20;;;;;;5065026;28;20051;-22
2023/01/13 05:52:29;;;;;;;2.85;2.65;;;17.60;71.90;;;;;;5066392;28;20039;-18
2023/01/13 05:54:54;;;;;;;3.83;3.55;;;17.50;72.20;;;;;;5069463;28;20037;-14
2023/01/13 05:57:20;;;;;;;3.65;3.35;;;17.60;72.70;;;;;;5067374;28;20079;-13
2023/01/13 05:59:45;;;;;;;3.65;3.35;;;17.60;72.60;;;;;;5073241;28;20037;-14
2023/01/13 06:02:11;;;;;;;4.40;4.10;;;17.80;72.10;;;;;;5072674;28;20093;-14
2023/01/13 06:04:37;;;;;;;3.90;3.60;;;17.70;72.10;;;;;;5071519;28;20032;-14
2023/01/13 06:07:02;;;;;;;4.15;3.80;;;17.70;72.30;;;;;;5067060;28;20490;-18
2023/01/13 06:09:28;;;;;;;3.95;3.65;;;17.80;72.30;;;;;;5069064;28;20106;-15
2023/01/13 06:11:53;;;;;;;4.10;3.80;;;17.80;72.40;;;;;;5067632;28;20049;-14
2023/01/13 06:14:19;;;;;;;4.13;3.88;;;17.80;72.30;;;;;;5067946;28;20632;-13
2023/01/13 06:16:45;;;;;;;3.85;3.55;;;17.70;72.60;;;;;;5068651;28;20043;-14
2023/01/13 06:19:12;;;;;;;3.78;3.47;;;17.70;72.90;;;;;;5070393;28;20052;-15
2023/01/13 06:21:38;;;;;;;4.10;3.80;;;17.60;73.30;;;;;;5067075;28;20075;-14
2023/01/13 06:24:04;;;;;;;4.90;4.40;;;17.60;73.30;;;;;;5068412;28;20106;-13
2023/01/13 06:26:32;;;;;;;3.90;3.50;;;17.60;73.00;;;;;;5067619;28;20139;-14
2023/01/13 06:28:57;;;;;;;4.00;3.70;;;17.60;73.20;;;;;;5065709;28;20110;-13
2023/01/13 06:31:23;;;;;;;4.18;3.88;;;17.60;73.00;;;;;;5069890;28;20036;-12
2023/01/13 06:33:51;;;;;;;3.45;3.25;;;17.60;73.40;;;;;;5068158;28;20044;-14
2023/01/13 06:36:23;;;;;;;3.47;3.17;;;17.50;73.80;;;;;;5066304;28;20044;-14
2023/01/13 06:38:50;;;;;;;3.83;3.55;;;17.50;74.50;;;;;;5065401;28;20478;-15
2023/01/13 06:41:16;;;;;;;4.30;3.80;;;17.60;75.00;;;;;;5067692;28;20498;-15
2023/01/13 06:43:42;;;;;;;3.85;3.60;;;17.50;74.60;;;;;;5069462;28;20040;-14
2023/01/13 06:46:07;;;;;;;4.18;3.88;;;17.50;74.60;;;;;;5066282;28;20048;-15
2023/01/13 06:48:34;;;;;;;4.03;3.72;;;17.60;74.70;;;;;;5065929;28;20044;-16
2023/01/13 06:51:00;;;;;;;3.45;3.17;;;17.50;74.60;;;;;;5067240;28;20056;-15
2023/01/13 06:53:26;;;;;;;3.95;3.65;;;17.50;74.70;;;;;;5083865;28;20055;-13
2023/01/13 06:55:51;;;;;;;3.35;3.15;;;17.40;74.70;;;;;;5066968;28;20044;-17
2023/01/13 06:58:17;;;;;;;3.20;3.00;;;17.60;74.30;;;;;;5069589;28;20044;-14
2023/01/13 07:00:42;;;;;;;5.18;3.67;;;17.60;73.90;;;;;;5067725;28;20465;-13
2023/01/13 07:03:15;;;;;;;4.00;3.65;;;17.50;73.90;;;;;;5066408;28;20493;-13
2023/01/13 07:05:41;;;;;;;4.32;3.28;;;17.60;74.10;;;;;;5065023;28;20049;-15
2023/01/13 07:08:07;;;;;;;3.40;3.10;;;17.50;74.10;;;;;;5066909;28;20068;-14
2023/01/13 07:10:33;;;;;;;4.18;3.60;;;17.50;74.20;;;;;;5051734;28;20056;-13
2023/01/13 07:15:57;;;;;;;2.92;2.72;;;17.60;73.90;;;;;;5068896;28;20098;-14
2023/01/13 07:18:23;;;;;;;3.03;2.75;;;17.60;73.70;;;;;;5065928;28;20040;-14
2023/01/13 07:21:05;;;;;;;2.75;2.55;;;17.70;73.40;;;;;;5083980;28;20043;-15
2023/01/13 07:23:32;;;;;;;3.33;3.13;;;17.60;73.40;;;;;;5069740;28;20120;-16
2023/01/13 07:25:58;;;;;;;2.80;2.60;;;17.70;73.30;;;;;;5066657;28;20067;-14
2023/01/13 07:28:24;;;;;;;2.75;2.55;;;17.60;73.50;;;;;;5067632;28;20135;-14
2023/01/13 07:30:49;;;;;;;3.40;3.13;;;17.60;73.70;;;;;;5082752;28;20279;-13
2023/01/13 07:33:17;;;;;;;3.35;3.10;;;17.60;73.70;;;;;;5068129;28;20490;-13
2023/01/13 07:35:43;;;;;;;3.30;3.00;;;17.60;73.70;;;;;;5066038;28;20623;-13
2023/01/13 07:38:09;;;;;;;2.58;2.38;;;17.60;73.90;;;;;;5070036;28;20083;-19
2023/01/13 07:40:34;;;;;;;2.95;2.58;;;17.60;74.20;;;;;;5065463;28;20512;-13
2023/01/13 07:45:44;;;;;;;;;;;17.40;74.70;;;;;;5053402;28;20156;-13
2023/01/13 07:48:10;;;;;;;2.85;2.65;;;17.40;74.70;;;;;;5042176;28;20437;-16
2023/01/13 07:50:35;;;;;;;3.08;2.80;;;17.60;74.00;;;;;;5059059;28;20574;-21
2023/01/13 07:53:01;;;;;;;2.70;2.50;;;17.50;73.90;;;;;;5051480;28;20041;-13
2023/01/13 07:55:26;;;;;;;2.67;2.47;;;17.60;73.40;;;;;;5050949;28;20123;-13
2023/01/13 07:57:52;;;;;;;2.88;2.67;;;17.60;74.00;;;;;;5047910;28;20401;-15
2023/01/13 08:00:18;;;;;;;2.33;2.20;;;17.50;74.00;;;;;;5041680;28;20103;-14
2023/01/13 08:02:43;;;;;;;2.20;2.00;;;17.50;73.90;;;;;;5043814;28;20372;-14
2023/01/13 08:05:09;;;;;;;4.25;2.42;;;17.60;74.30;;;;;;5055593;28;20525;-15
2023/01/13 08:07:35;;;;;;;2.58;2.38;;;17.50;74.00;;;;;;5045787;28;20120;-13
2023/01/13 08:10:01;;;;;;;4.53;2.50;;;17.50;74.30;;;;;;5051105;28;20056;-17
2023/01/13 08:15:11;;;;;;;3.67;2.42;;;17.60;74.70;;;;;;5051373;28;20128;-21
2023/01/13 08:17:37;;;;;;;2.70;2.50;;;17.50;74.90;;;;;;5050990;28;20120;-17
2023/01/13 08:20:03;;;;;;;2.47;2.35;;;17.50;74.90;;;;;;5061031;28;20048;-14
2023/01/13 08:22:31;;;;;;;2.60;2.40;;;17.50;75.00;;;;;;5042472;28;20037;-14
2023/01/13 08:24:58;;;;;;;2.38;2.10;;;17.60;75.00;;;;;;5056134;28;20049;-15
2023/01/13 08:27:23;;;;;;;2.25;2.10;;;17.60;74.60;;;;;;5062256;28;20091;-15
2023/01/13 08:29:49;;;;;;;2.40;2.05;;;17.60;74.30;;;;;;5061229;28;20510;-16
2023/01/13 08:32:14;;;;;;;2.55;2.15;;;17.60;74.60;;;;;;5051900;28;20034;-19
2023/01/13 08:34:40;;;;;;;2.80;2.60;;;17.60;74.60;;;;;;5052484;28;20402;-15
2023/01/13 08:37:05;;;;;;;3.20;3.00;;;17.60;74.60;;;;;;5057799;28;20975;-13
2023/01/13 08:39:31;;;;;;;2.70;2.50;;;17.60;74.50;;;;;;5060690;28;20501;-14
2023/01/13 08:41:59;;;;;;;2.47;2.28;;;17.60;74.60;;;;;;5053861;28;20041;-14
2023/01/13 08:44:26;;;;;;;3.42;1.95;;;17.60;74.50;;;;;;5055004;28;20141;-14
2023/01/13 08:46:51;;;;;;;2.20;2.10;;;17.60;74.50;;;;;;5073873;28;20068;-14
2023/01/13 08:49:18;;;;;;;2.00;1.90;;;17.60;74.60;;;;;;5076312;28;20491;-13
2023/01/13 08:51:43;;;;;;;2.53;2.10;;;17.60;74.50;;;;;;5069224;28;20048;-16
2023/01/13 08:54:09;;;;;;;1.67;1.58;;;17.60;74.50;;;;;;5074671;28;20048;-16
2023/01/13 08:56:35;;;;;;;2.10;2.00;;;17.50;74.70;;;;;;5067624;28;20040;-13
2023/01/13 08:59:01;;;;;;;1.90;1.80;;;17.60;74.40;;;;;;5078002;28;20086;-16
2023/01/13 09:01:26;;;;;;;2.13;1.92;;;17.60;74.40;;;;;;5081010;28;20115;-15
2023/01/13 09:03:52;;;;;;;2.03;1.85;;;17.60;74.50;;;;;;5079389;28;20059;-15
2023/01/13 09:06:17;;;;;;;2.85;2.10;;;17.60;74.30;;;;;;5074278;28;20052;-17
2023/01/13 09:08:43;;;;;;;2.00;1.90;;;17.50;74.30;;;;;;5077119;28;20068;-14
2023/01/13 09:14:02;;;;;;;1.98;1.50;;;17.50;74.50;;;;;;5066147;28;21667;-15
2023/01/13 09:16:27;;;;;;;1.83;1.67;;;17.50;74.10;;;;;;5076627;28;20044;-14
2023/01/13 09:18:53;;;;;;;2.03;1.92;;;17.50;74.40;;;;;;5072030;28;20066;-15
2023/01/13 09:21:19;;;;;;;1.90;1.80;;;17.50;74.50;;;;;;5073960;28;20560;-22
2023/01/13 09:23:45;;;;;;;1.70;1.60;;;17.50;74.40;;;;;;5064900;28;20601;-14
2023/01/13 09:26:11;;;;;;;1.65;1.55;;;17.50;74.40;;;;;;5063872;28;20106;-14
2023/01/13 09:28:37;;;;;;;1.90;1.80;;;17.50;74.30;;;;;;5069378;28;20607;-22
2023/01/13 09:31:02;;;;;;;1.70;1.60;;;17.50;74.20;;;;;;5074815;28;20486;-15
2023/01/13 09:36:12;;;;;;;1.88;1.77;;;17.60;74.10;;;;;;5079037;28;20189;-15
2023/01/13 09:38:38;;;;;;;2.88;1.67;;;17.60;74.10;;;;;;5077355;28;20130;-21
2023/01/13 09:43:52;;;;;;;2.33;2.08;;;17.60;74.00;;;;;;5079294;28;20110;-14
2023/01/13 09:43:55;;;;;;;1.52;1.42;;;17.60;74.10;;;;;;5080046;28;20055;-13
2023/01/13 09:49:19;;;;;;;2.13;1.88;;;17.60;74.10;;;;;;5064968;28;20048;-15
2023/01/13 09:51:47;;;;;;;1.88;1.70;;;17.60;74.10;;;;;;5067147;28;20048;-15
2023/01/13 09:54:21;;;;;;;1.98;1.65;;;17.60;74.40;;;;;;5080909;28;20455;-20
2023/01/13 09:56:47;;;;;;;1.60;1.40;;;17.50;74.20;;;;;;5068576;28;20512;-16
2023/01/13 09:59:14;;;;;;;1.80;1.70;;;17.60;74.30;;;;;;5086337;28;20127;-13
2023/01/13 10:02:00;;;;;;;1.80;1.33;;;17.60;74.20;;;;;;5084796;28;20411;-14
2023/01/13 10:04:25;;;;;;;1.70;1.60;;;17.50;74.20;;;;;;5055852;28;20032;-15
2023/01/13 10:06:52;;;;;;;1.58;1.48;;;17.60;74.10;;;;;;5069972;28;20417;-13
2023/01/13 10:09:29;;;;;;;2.35;1.40;;;17.60;74.10;;;;;;5086098;28;20076;-17
2023/01/13 10:14:57;;;;;;;1.52;1.42;;;17.60;73.90;;;;;;5066168;28;20047;-13
2023/01/13 10:17:33;;;;;;;1.42;1.33;;;17.60;73.90;;;;;;5078852;28;20029;-15
2023/01/13 10:20:20;;;;;;;1.30;1.20;;;17.70;73.80;;;;;;5069903;28;20053;-31
2023/01/13 10:23:16;;;;;;;1.65;1.38;;;17.70;73.70;;;;;;5076884;28;20178;-17
2023/01/13 10:26:11;;;;;;;2.00;1.67;;;17.60;74.00;;;;;;5069220;28;20130;-16
2023/01/13 10:28:36;;;;;;;;;;;17.60;74.20;;;;;;5057278;28;20052;-14
2023/01/13 10:31:09;;;;;;;1.40;1.10;;;17.60;74.20;;;;;;5070217;28;20297;-14
2023/01/13 10:33:34;;;;;;;2.15;1.40;;;17.70;73.90;;;;;;5085816;28;20032;-13
2023/01/13 10:36:01;;;;;;;2.80;1.50;;;17.80;73.80;;;;;;5077823;28;20039;-20
2023/01/13 10:38:39;;;;;;;3.05;2.03;;;17.80;73.60;;;;;;5084043;28;20055;-14
2023/01/13 10:41:11;;;;;;;1.52;1.42;;;17.80;73.60;;;;;;5073405;28;20101;-14
2023/01/13 10:43:36;;;;;;;1.25;1.17;;;17.70;73.70;;;;;;5075854;28;20068;-14
2023/01/13 10:46:09;;;;;;;0.88;0.88;;;17.70;74.00;;;;;;5074203;28;20087;-14
2023/01/13 10:48:41;;;;;;;6.60;1.00;;;17.90;73.60;;;;;;5086051;28;20047;-13
2023/01/13 10:51:13;;;;;;;3.53;1.30;;;17.80;73.40;;;;;;5074136;28;20536;-14
2023/01/13 10:53:56;;;;;;;2.28;1.50;;;18.00;73.20;;;;;;5073550;28;20047;-23
2023/01/13 10:56:24;;;;;;;2.17;1.30;;;18.00;73.00;;;;;;5071836;28;20068;-14
2023/01/13 10:58:50;;;;;;;2.33;1.30;;;17.90;73.10;;;;;;5076949;28;20118;-18
2023/01/13 11:01:25;;;;;;;1.70;1.55;;;18.00;73.00;;;;;;5077686;28;20655;-13
2023/01/13 11:03:54;;;;;;;1.33;1.23;;;18.10;72.60;;;;;;5061799;28;20132;-15
2023/01/13 11:06:28;;;;;;;1.38;1.27;;;18.20;72.60;;;;;;5073839;28;20060;-14
2023/01/13 11:08:57;;;;;;;1.30;1.20;;;18.10;72.80;;;;;;5066119;28;20052;-14
2023/01/13 11:11:41;;;;;;;1.52;1.40;;;18.20;72.30;;;;;;5081078;28;20052;-13
2023/01/13 11:14:32;;;;;;;1.52;1.17;;;18.20;72.20;;;;;;5069841;28;20068;-14
2023/01/13 11:17:18;;;;;;;1.42;1.33;;;18.20;72.20;;;;;;5064135;28;20109;-14
2023/01/13 11:19:49;;;;;;;1.23;1.13;;;18.30;72.00;;;;;;5074016;28;20032;-14
2023/01/13 11:22:31;;;;;;;1.55;1.20;;;18.30;72.00;;;;;;5083700;28;20455;-14
2023/01/13 11:25:01;;;;;;;2.53;1.17;;;18.10;72.30;;;;;;5050153;28;20476;-17
2023/01/13 11:27:39;;;;;;;2.70;1.30;;;18.10;72.30;;;;;;5066989;28;20048;-17
2023/01/13 11:30:16;;;;;;;1.17;1.08;;;18.10;72.60;;;;;;5068292;28;20076;-14
2023/01/13 11:32:53;;;;;;;2.28;1.15;;;18.20;72.30;;;;;;5081575;28;20040;-15
2023/01/13 11:35:19;;;;;;;1.40;1.13;;;18.30;72.20;;;;;;5069273;28;20101;-17
2023/01/13 11:37:50;;;;;;;2.47;0.98;;;18.20;72.30;;;;;;5069351;28;20045;-16
2023/01/13 11:40:26;;;;;;;3.20;1.05;;;18.20;72.10;;;;;;5071536;28;20048;-14
2023/01/13 11:43:11;;;;;;;1.35;1.10;;;18.20;72.00;;;;;;5070643;28;20098;-14
2023/01/13 11:45:44;;;;;;;1.30;1.20;;;18.30;71.90;;;;;;5063258;28;20091;-17
2023/01/13 11:48:18;;;;;;;2.03;1.00;;;18.20;71.80;;;;;;5062140;28;20044;-20
2023/01/13 11:51:01;;;;;;;4.93;1.10;;;18.20;72.80;;;;;;5065014;28;20029;-14
2023/01/13 11:53:54;;;;;;;1.17;1.08;;;18.20;72.00;;;;;;5065652;28;20040;-16
2023/01/13 11:56:43;;;;;;;1.52;0.90;;;18.10;71.90;;;;;;5076751;28;20044;-15
2023/01/13 11:59:17;;;;;;;0.88;0.88;;;18.20;71.90;;;;;;5083586;28;20044;-15
2023/01/13 12:01:48;;;;;;;1.00;0.88;;;18.30;71.80;;;;;;5074702;28;20390;-15
2023/01/13 12:04:26;;;;;;;1.98;0.90;;;18.20;72.00;;;;;;5084891;28;20072;-14
2023/01/13 12:07:01;;;;;;;2.80;1.13;;;18.20;71.90;;;;;;5081432;28;20056;-20
2023/01/13 12:09:47;;;;;;;1.53;0.90;;;18.20;72.20;;;;;;4708177;28;10000442;-15
2023/01/13 12:12:31;;;;;;;1.45;1.20;;;18.30;72.10;;;;;;5061669;28;20047;-17
2023/01/13 12:15:02;;;;;;;1.42;1.00;;;18.20;71.90;;;;;;5065528;28;20048;-14
2023/01/13 12:18:00;;;;;;;2.33;1.20;;;18.20;72.00;;;;;;5069865;28;20056;-16
2023/01/13 12:20:47;;;;;;;1.10;0.88;;;18.30;71.80;;;;;;5062597;28;20052;-14
2023/01/13 12:23:32;;;;;;;1.55;1.00;;;18.30;72.00;;;;;;5062969;28;20044;-17
2023/01/13 12:26:09;;;;;;;1.65;1.23;;;18.30;72.00;;;;;;5062668;28;20044;-16
2023/01/13 12:28:55;;;;;;;1.50;0.98;;;18.30;72.20;;;;;;5074588;28;20123;-18
2023/01/13 12:31:20;;;;;;;1.33;0.95;;;18.30;72.30;;;;;;5061269;28;20044;-15
2023/01/13 12:33:46;;;;;;;1.13;1.02;;;18.30;73.00;;;;;;5062204;28;20043;-14
2023/01/13 12:36:17;;;;;;;1.30;1.20;;;18.30;72.30;;;;;;5067210;28;20048;-14
2023/01/13 12:38:56;;;;;;;1.80;1.25;;;18.30;72.10;;;;;;5065725;28;20087;-16
2023/01/13 12:45:05;;;;;;;1.33;1.02;;;18.30;72.10;;;;;;5027757;28;20646;-13
2023/01/13 12:47:38;;;;;;;1.42;1.23;;;18.30;71.80;;;;;;5041655;28;20048;-14
2023/01/13 12:50:22;;;;;;;1.27;1.00;;;18.30;72.00;;;;;;5039142;28;20049;-21
2023/01/13 12:52:48;;;;;;;1.20;1.08;;;18.30;71.90;;;;;;5041408;28;20041;-13
2023/01/13 12:55:19;;;;;;;0.98;0.98;;;18.30;71.80;;;;;;5040776;28;20037;-14
2023/01/13 12:58:03;;;;;;;1.83;0.90;;;18.40;71.60;;;;;;5052246;28;20116;-15
2023/01/13 13:00:57;;;;;;;2.42;1.23;;;18.40;71.80;;;;;;5040543;28;20052;-25
2023/01/13 13:03:26;;;;;;;1.90;1.10;;;18.30;71.80;;;;;;5045903;28;20417;-22
2023/01/13 13:06:14;;;;;;;4.03;1.05;;;18.30;72.00;;;;;;5049826;28;20043;-15
2023/01/13 13:08:51;;;;;;;1.48;1.10;;;18.30;71.80;;;;;;5048323;28;20044;-17
2023/01/13 13:14:11;;;;;;;2.15;1.00;;;18.30;72.10;;;;;;5031862;28;20063;-16
2023/01/13 13:16:48;;;;;;;2.30;1.20;;;18.30;72.20;;;;;;5029866;28;20043;-16
2023/01/13 13:19:16;;;;;;;2.35;1.23;;;18.30;72.20;;;;;;5036087;28;20099;-16
2023/01/13 13:22:13;;;;;;;1.35;0.80;;;18.30;72.40;;;;;;5049861;28;21221;-18
2023/01/13 13:24:39;;;;;;;4.28;0.90;;;18.40;72.30;;;;;;5047639;28;20052;-16
2023/01/13 13:27:17;;;;;;;1.83;1.00;;;18.30;72.50;;;;;;5047303;28;20056;-15
2023/01/13 13:29:45;;;;;;;1.50;1.05;;;18.30;72.70;;;;;;5049028;28;20057;-15
2023/01/13 13:32:49;;;;;;;1.83;0.90;;;18.40;72.60;;;;;;5044304;28;20064;-16
2023/01/13 13:35:22;;;;;;;1.45;0.95;;;18.30;72.80;;;;;;5048844;28;20116;-14
2023/01/13 13:46:45;;;;;;;1.30;0.90;;;18.30;72.70;;;;;;4946833;28;20118;-13
2023/01/13 13:49:18;;;;;;;1.17;0.82;;;18.30;73.50;;;;;;4948436;28;20046;-15
2023/01/13 13:52:09;;;;;;;2.15;1.00;;;18.30;72.60;;;;;;4948121;28;20454;-16
2023/01/13 13:54:35;;;;;;;1.33;1.13;;;18.30;72.60;;;;;;4948199;28;20043;-14
2023/01/13 13:57:01;;;;;;;1.33;1.00;;;18.30;72.50;;;;;;4930521;28;20049;-15
2023/01/13 13:59:29;;;;;;;1.42;0.90;;;18.30;72.50;;;;;;4947055;28;20649;-15
2023/01/13 14:02:00;;;;;;;1.92;1.20;;;18.30;72.70;;;;;;4933032;28;20043;-16
2023/01/13 14:04:28;;;;;;;2.78;1.23;;;18.30;72.60;;;;;;4932010;28;20058;-21
2023/01/13 14:07:17;;;;;;;0.95;0.80;;;18.30;72.60;;;;;;4946182;28;20047;-14